sensor_id;sensor_type;location;lat;lon;timestamp;temperature;humidity
33645;DHT22;19986;48.190;16.366;2022-07-23T00:01:36;30.00;80.60
33645;DHT22;19986;48.190;16.366;2022-07-23T00:04:02;30.00;79.90
33645;DHT22;19986;48.190;16.366;2022-07-23T00:06:28;30.00;80.00
33645;DHT22;19986;48.190;16.366;2022-07-23T00:08:53;29.90;80.20
33645;DHT22;19986;48.190;16.366;2022-07-23T00:11:19;29.90;80.40
33645;DHT22;19986;48.190;16.366;2022-07-23T00:13:47;29.80;80.50
33645;DHT22;19986;48.190;16.366;2022-07-23T00:16:14;29.80;80.70
33645;DHT22;19986;48.190;16.366;2022-07-23T00:18:39;29.80;80.70
33645;DHT22;19986;48.190;16.366;2022-07-23T00:21:06;29.80;80.70
33645;DHT22;19986;48.190;16.366;2022-07-23T00:23:32;29.80;80.70
33645;DHT22;19986;48.190;16.366;2022-07-23T00:25:58;29.80;80.60
33645;DHT22;19986;48.190;16.366;2022-07-23T00:28:25;29.80;80.60
33645;DHT22;19986;48.190;16.366;2022-07-23T00:30:50;29.80;80.70
33645;DHT22;19986;48.190;16.366;2022-07-23T00:33:16;29.80;80.80
33645;DHT22;19986;48.190;16.366;2022-07-23T00:35:42;29.70;80.90
33645;DHT22;19986;48.190;16.366;2022-07-23T00:38:10;29.70;80.80
33645;DHT22;19986;48.190;16.366;2022-07-23T00:40:36;29.70;80.70
33645;DHT22;19986;48.190;16.366;2022-07-23T00:43:16;29.80;80.60
33645;DHT22;19986;48.190;16.366;2022-07-23T00:45:42;29.70;80.60
33645;DHT22;19986;48.190;16.366;2022-07-23T00:48:08;29.70;80.60
33645;DHT22;19986;48.190;16.366;2022-07-23T00:50:34;29.70;80.50
33645;DHT22;19986;48.190;16.366;2022-07-23T00:52:59;29.60;80.40
33645;DHT22;19986;48.190;16.366;2022-07-23T00:55:26;29.60;80.50
33645;DHT22;19986;48.190;16.366;2022-07-23T00:57:53;29.60;80.90
33645;DHT22;19986;48.190;16.366;2022-07-23T01:00:19;29.60;81.40
33645;DHT22;19986;48.190;16.366;2022-07-23T01:02:45;29.50;81.40
33645;DHT22;19986;48.190;16.366;2022-07-23T01:05:11;29.40;81.90
33645;DHT22;19986;48.190;16.366;2022-07-23T01:07:38;29.40;82.40
33645;DHT22;19986;48.190;16.366;2022-07-23T01:10:06;29.40;82.80
33645;DHT22;19986;48.190;16.366;2022-07-23T01:12:52;29.40;83.90
33645;DHT22;19986;48.190;16.366;2022-07-23T01:15:18;29.40;84.50
33645;DHT22;19986;48.190;16.366;2022-07-23T01:17:44;29.40;85.00
33645;DHT22;19986;48.190;16.366;2022-07-23T01:20:10;29.30;85.40
33645;DHT22;19986;48.190;16.366;2022-07-23T01:22:36;29.20;85.90
33645;DHT22;19986;48.190;16.366;2022-07-23T01:25:02;29.10;86.50
33645;DHT22;19986;48.190;16.366;2022-07-23T01:27:28;29.00;87.10
33645;DHT22;19986;48.190;16.366;2022-07-23T01:29:54;28.90;87.30
33645;DHT22;19986;48.190;16.366;2022-07-23T01:32:20;28.90;87.50
33645;DHT22;19986;48.190;16.366;2022-07-23T01:34:46;28.80;87.50
33645;DHT22;19986;48.190;16.366;2022-07-23T01:37:12;28.80;87.50
33645;DHT22;19986;48.190;16.366;2022-07-23T01:39:39;28.70;87.10
33645;DHT22;19986;48.190;16.366;2022-07-23T01:42:05;28.70;87.40
33645;DHT22;19986;48.190;16.366;2022-07-23T01:44:31;28.60;87.70
33645;DHT22;19986;48.190;16.366;2022-07-23T01:46:57;28.60;87.90
33645;DHT22;19986;48.190;16.366;2022-07-23T01:49:24;28.50;88.10
33645;DHT22;19986;48.190;16.366;2022-07-23T01:51:51;28.50;88.50
33645;DHT22;19986;48.190;16.366;2022-07-23T01:54:33;28.50;89.00
33645;DHT22;19986;48.190;16.366;2022-07-23T01:57:01;28.50;89.50
33645;DHT22;19986;48.190;16.366;2022-07-23T01:59:28;28.50;89.40
33645;DHT22;19986;48.190;16.366;2022-07-23T02:01:54;28.60;89.60
33645;DHT22;19986;48.190;16.366;2022-07-23T02:04:21;28.60;89.70
33645;DHT22;19986;48.190;16.366;2022-07-23T02:06:48;28.50;89.90
33645;DHT22;19986;48.190;16.366;2022-07-23T02:09:15;28.60;90.10
33645;DHT22;19986;48.190;16.366;2022-07-23T02:11:41;28.60;90.30
33645;DHT22;19986;48.190;16.366;2022-07-23T02:14:07;28.50;90.20
33645;DHT22;19986;48.190;16.366;2022-07-23T02:16:34;28.50;90.20
33645;DHT22;19986;48.190;16.366;2022-07-23T02:19:00;28.60;90.10
33645;DHT22;19986;48.190;16.366;2022-07-23T02:21:26;28.60;90.00
33645;DHT22;19986;48.190;16.366;2022-07-23T02:23:53;28.60;89.90
33645;DHT22;19986;48.190;16.366;2022-07-23T02:26:20;28.60;89.90
33645;DHT22;19986;48.190;16.366;2022-07-23T02:28:46;28.70;89.70
33645;DHT22;19986;48.190;16.366;2022-07-23T02:31:13;28.80;89.50
33645;DHT22;19986;48.190;16.366;2022-07-23T02:33:39;28.80;89.30
33645;DHT22;19986;48.190;16.366;2022-07-23T02:36:05;28.80;89.00
33645;DHT22;19986;48.190;16.366;2022-07-23T02:38:31;28.90;88.90
33645;DHT22;19986;48.190;16.366;2022-07-23T02:40:58;29.00;88.80
33645;DHT22;19986;48.190;16.366;2022-07-23T02:43:24;29.00;88.70
33645;DHT22;19986;48.190;16.366;2022-07-23T02:45:50;29.00;88.90
33645;DHT22;19986;48.190;16.366;2022-07-23T02:48:16;29.00;88.90
33645;DHT22;19986;48.190;16.366;2022-07-23T02:50:43;29.00;88.90
33645;DHT22;19986;48.190;16.366;2022-07-23T02:53:08;29.00;89.10
33645;DHT22;19986;48.190;16.366;2022-07-23T02:55:34;29.00;89.10
33645;DHT22;19986;48.190;16.366;2022-07-23T02:58:00;29.00;89.30
33645;DHT22;19986;48.190;16.366;2022-07-23T03:00:26;29.00;89.50
33645;DHT22;19986;48.190;16.366;2022-07-23T03:02:53;28.90;89.40
33645;DHT22;19986;48.190;16.366;2022-07-23T03:05:18;28.90;89.30
33645;DHT22;19986;48.190;16.366;2022-07-23T03:07:45;28.90;89.50
33645;DHT22;19986;48.190;16.366;2022-07-23T03:10:12;28.90;89.70
33645;DHT22;19986;48.190;16.366;2022-07-23T03:12:38;28.90;89.70
33645;DHT22;19986;48.190;16.366;2022-07-23T03:15:04;29.00;89.90
33645;DHT22;19986;48.190;16.366;2022-07-23T03:17:31;28.90;90.00
33645;DHT22;19986;48.190;16.366;2022-07-23T03:19:57;28.80;90.00
33645;DHT22;19986;48.190;16.366;2022-07-23T03:22:25;28.80;90.20
33645;DHT22;19986;48.190;16.366;2022-07-23T03:24:52;28.80;90.10
33645;DHT22;19986;48.190;16.366;2022-07-23T03:27:25;28.80;90.00
33645;DHT22;19986;48.190;16.366;2022-07-23T03:29:53;28.90;89.80
33645;DHT22;19986;48.190;16.366;2022-07-23T03:32:34;28.90;89.70
33645;DHT22;19986;48.190;16.366;2022-07-23T03:35:01;28.90;89.60
33645;DHT22;19986;48.190;16.366;2022-07-23T03:37:27;29.00;89.60
33645;DHT22;19986;48.190;16.366;2022-07-23T03:39:53;28.90;89.40
33645;DHT22;19986;48.190;16.366;2022-07-23T03:42:20;29.00;89.50
33645;DHT22;19986;48.190;16.366;2022-07-23T03:44:46;29.00;89.60
33645;DHT22;19986;48.190;16.366;2022-07-23T03:47:12;29.00;90.20
33645;DHT22;19986;48.190;16.366;2022-07-23T03:49:38;29.00;89.70
33645;DHT22;19986;48.190;16.366;2022-07-23T03:52:05;29.00;89.70
33645;DHT22;19986;48.190;16.366;2022-07-23T03:54:31;29.00;89.80
33645;DHT22;19986;48.190;16.366;2022-07-23T03:56:57;29.00;89.90
33645;DHT22;19986;48.190;16.366;2022-07-23T03:59:23;28.90;89.70
33645;DHT22;19986;48.190;16.366;2022-07-23T04:01:50;28.80;90.20
33645;DHT22;19986;48.190;16.366;2022-07-23T04:04:16;28.80;89.70
33645;DHT22;19986;48.190;16.366;2022-07-23T04:06:41;28.90;89.60
33645;DHT22;19986;48.190;16.366;2022-07-23T04:09:07;28.90;89.50
33645;DHT22;19986;48.190;16.366;2022-07-23T04:11:33;28.80;89.50
33645;DHT22;19986;48.190;16.366;2022-07-23T04:13:59;28.80;89.50
33645;DHT22;19986;48.190;16.366;2022-07-23T04:16:25;28.80;89.40
33645;DHT22;19986;48.190;16.366;2022-07-23T04:18:51;28.80;89.30
33645;DHT22;19986;48.190;16.366;2022-07-23T04:21:17;28.80;89.20
33645;DHT22;19986;48.190;16.366;2022-07-23T04:23:43;28.90;89.20
33645;DHT22;19986;48.190;16.366;2022-07-23T04:26:09;29.00;89.10
33645;DHT22;19986;48.190;16.366;2022-07-23T04:28:34;29.10;88.90
33645;DHT22;19986;48.190;16.366;2022-07-23T04:31:00;29.20;88.60
33645;DHT22;19986;48.190;16.366;2022-07-23T04:33:26;29.30;88.40
33645;DHT22;19986;48.190;16.366;2022-07-23T04:35:52;29.40;88.30
33645;DHT22;19986;48.190;16.366;2022-07-23T04:38:18;29.40;88.30
33645;DHT22;19986;48.190;16.366;2022-07-23T04:40:44;29.40;88.30
33645;DHT22;19986;48.190;16.366;2022-07-23T04:43:10;29.40;88.20
33645;DHT22;19986;48.190;16.366;2022-07-23T04:45:36;29.50;88.10
33645;DHT22;19986;48.190;16.366;2022-07-23T04:48:01;29.50;87.70
33645;DHT22;19986;48.190;16.366;2022-07-23T04:50:27;29.60;87.70
33645;DHT22;19986;48.190;16.366;2022-07-23T04:52:53;29.60;87.40
33645;DHT22;19986;48.190;16.366;2022-07-23T04:55:19;29.60;87.10
33645;DHT22;19986;48.190;16.366;2022-07-23T04:57:45;29.70;86.90
33645;DHT22;19986;48.190;16.366;2022-07-23T05:00:11;29.60;86.70
33645;DHT22;19986;48.190;16.366;2022-07-23T05:02:37;29.60;86.70
33645;DHT22;19986;48.190;16.366;2022-07-23T05:05:07;29.50;86.70
33645;DHT22;19986;48.190;16.366;2022-07-23T05:07:33;29.50;87.50
33645;DHT22;19986;48.190;16.366;2022-07-23T05:09:59;29.60;86.60
33645;DHT22;19986;48.190;16.366;2022-07-23T05:12:25;29.70;86.40
33645;DHT22;19986;48.190;16.366;2022-07-23T05:14:51;30.00;86.00
33645;DHT22;19986;48.190;16.366;2022-07-23T05:17:18;30.60;85.70
33645;DHT22;19986;48.190;16.366;2022-07-23T05:19:44;31.60;83.40
33645;DHT22;19986;48.190;16.366;2022-07-23T05:22:10;31.50;82.80
33645;DHT22;19986;48.190;16.366;2022-07-23T05:24:37;31.20;82.60
33645;DHT22;19986;48.190;16.366;2022-07-23T05:27:03;30.70;83.40
33645;DHT22;19986;48.190;16.366;2022-07-23T05:29:29;30.40;84.20
33645;DHT22;19986;48.190;16.366;2022-07-23T05:31:54;30.20;84.80
33645;DHT22;19986;48.190;16.366;2022-07-23T05:34:20;30.10;85.10
33645;DHT22;19986;48.190;16.366;2022-07-23T05:36:46;30.00;85.20
33645;DHT22;19986;48.190;16.366;2022-07-23T05:39:14;30.00;85.30
33645;DHT22;19986;48.190;16.366;2022-07-23T05:41:40;29.90;85.50
33645;DHT22;19986;48.190;16.366;2022-07-23T05:44:06;30.00;85.60
33645;DHT22;19986;48.190;16.366;2022-07-23T05:46:35;30.10;85.70
33645;DHT22;19986;48.190;16.366;2022-07-23T05:49:01;30.20;85.60
33645;DHT22;19986;48.190;16.366;2022-07-23T05:51:27;30.30;85.90
33645;DHT22;19986;48.190;16.366;2022-07-23T05:53:53;30.40;85.80
33645;DHT22;19986;48.190;16.366;2022-07-23T05:56:19;30.50;85.70
33645;DHT22;19986;48.190;16.366;2022-07-23T05:58:45;30.60;85.70
33645;DHT22;19986;48.190;16.366;2022-07-23T06:01:11;30.50;85.90
33645;DHT22;19986;48.190;16.366;2022-07-23T06:03:40;30.50;86.30
33645;DHT22;19986;48.190;16.366;2022-07-23T06:06:07;30.40;86.60
33645;DHT22;19986;48.190;16.366;2022-07-23T06:08:33;30.50;86.70
33645;DHT22;19986;48.190;16.366;2022-07-23T06:10:59;30.60;86.40
33645;DHT22;19986;48.190;16.366;2022-07-23T06:13:25;30.70;86.30
33645;DHT22;19986;48.190;16.366;2022-07-23T06:15:50;30.80;86.20
33645;DHT22;19986;48.190;16.366;2022-07-23T06:18:16;30.90;85.90
33645;DHT22;19986;48.190;16.366;2022-07-23T06:20:42;30.90;85.90
33645;DHT22;19986;48.190;16.366;2022-07-23T06:23:08;31.00;85.80
33645;DHT22;19986;48.190;16.366;2022-07-23T06:25:34;31.00;85.70
33645;DHT22;19986;48.190;16.366;2022-07-23T06:28:00;30.90;85.70
33645;DHT22;19986;48.190;16.366;2022-07-23T06:30:26;30.90;85.80
33645;DHT22;19986;48.190;16.366;2022-07-23T06:32:52;30.90;85.80
33645;DHT22;19986;48.190;16.366;2022-07-23T06:35:18;30.90;85.70
33645;DHT22;19986;48.190;16.366;2022-07-23T06:37:43;30.80;85.70
33645;DHT22;19986;48.190;16.366;2022-07-23T06:40:10;30.70;85.50
33645;DHT22;19986;48.190;16.366;2022-07-23T06:42:36;30.50;85.30
33645;DHT22;19986;48.190;16.366;2022-07-23T06:45:13;30.50;85.10
33645;DHT22;19986;48.190;16.366;2022-07-23T06:47:39;30.60;84.80
33645;DHT22;19986;48.190;16.366;2022-07-23T06:50:06;30.60;84.80
33645;DHT22;19986;48.190;16.366;2022-07-23T06:52:32;30.70;84.20
33645;DHT22;19986;48.190;16.366;2022-07-23T06:54:58;30.90;83.90
33645;DHT22;19986;48.190;16.366;2022-07-23T06:57:24;30.90;83.40
33645;DHT22;19986;48.190;16.366;2022-07-23T06:59:51;30.90;83.00
33645;DHT22;19986;48.190;16.366;2022-07-23T07:02:17;30.90;83.10
33645;DHT22;19986;48.190;16.366;2022-07-23T07:04:43;31.00;82.80
33645;DHT22;19986;48.190;16.366;2022-07-23T07:07:09;31.00;82.60
33645;DHT22;19986;48.190;16.366;2022-07-23T07:09:35;31.20;82.50
33645;DHT22;19986;48.190;16.366;2022-07-23T07:12:01;31.30;81.80
33645;DHT22;19986;48.190;16.366;2022-07-23T07:14:27;31.30;81.30
33645;DHT22;19986;48.190;16.366;2022-07-23T07:16:53;31.40;80.60
33645;DHT22;19986;48.190;16.366;2022-07-23T07:19:19;31.40;79.70
33645;DHT22;19986;48.190;16.366;2022-07-23T07:21:44;31.50;79.60
33645;DHT22;19986;48.190;16.366;2022-07-23T07:24:10;31.50;78.90
33645;DHT22;19986;48.190;16.366;2022-07-23T07:26:36;31.60;78.70
33645;DHT22;19986;48.190;16.366;2022-07-23T07:29:04;31.60;78.70
33645;DHT22;19986;48.190;16.366;2022-07-23T07:31:30;31.70;78.70
33645;DHT22;19986;48.190;16.366;2022-07-23T07:33:56;31.80;78.50
33645;DHT22;19986;48.190;16.366;2022-07-23T07:36:22;31.90;77.90
33645;DHT22;19986;48.190;16.366;2022-07-23T07:38:48;31.80;77.60
33645;DHT22;19986;48.190;16.366;2022-07-23T07:41:14;31.80;77.50
33645;DHT22;19986;48.190;16.366;2022-07-23T07:43:41;31.80;77.70
33645;DHT22;19986;48.190;16.366;2022-07-23T07:46:07;31.80;77.10
33645;DHT22;19986;48.190;16.366;2022-07-23T07:48:37;31.90;77.10
33645;DHT22;19986;48.190;16.366;2022-07-23T07:51:06;31.80;76.90
33645;DHT22;19986;48.190;16.366;2022-07-23T07:53:32;31.90;76.90
33645;DHT22;19986;48.190;16.366;2022-07-23T07:55:58;32.00;77.00
33645;DHT22;19986;48.190;16.366;2022-07-23T07:58:24;32.00;76.70
33645;DHT22;19986;48.190;16.366;2022-07-23T08:00:50;32.10;76.90
33645;DHT22;19986;48.190;16.366;2022-07-23T08:03:17;32.20;76.80
33645;DHT22;19986;48.190;16.366;2022-07-23T08:05:44;32.30;76.30
33645;DHT22;19986;48.190;16.366;2022-07-23T08:08:11;32.30;76.30
33645;DHT22;19986;48.190;16.366;2022-07-23T08:10:40;32.50;76.30
33645;DHT22;19986;48.190;16.366;2022-07-23T08:13:06;32.70;75.90
33645;DHT22;19986;48.190;16.366;2022-07-23T08:15:32;32.90;75.70
33645;DHT22;19986;48.190;16.366;2022-07-23T08:17:59;33.10;75.00
33645;DHT22;19986;48.190;16.366;2022-07-23T08:20:26;33.20;74.80
33645;DHT22;19986;48.190;16.366;2022-07-23T08:22:57;33.40;74.70
33645;DHT22;19986;48.190;16.366;2022-07-23T08:25:27;33.60;74.20
33645;DHT22;19986;48.190;16.366;2022-07-23T08:27:57;33.70;74.00
33645;DHT22;19986;48.190;16.366;2022-07-23T08:30:23;33.90;73.10
33645;DHT22;19986;48.190;16.366;2022-07-23T08:33:02;34.00;73.00
33645;DHT22;19986;48.190;16.366;2022-07-23T08:35:37;34.00;72.90
33645;DHT22;19986;48.190;16.366;2022-07-23T08:38:06;34.00;73.00
33645;DHT22;19986;48.190;16.366;2022-07-23T08:40:34;34.00;72.50
33645;DHT22;19986;48.190;16.366;2022-07-23T08:43:05;34.00;72.40
33645;DHT22;19986;48.190;16.366;2022-07-23T08:45:39;34.00;72.20
33645;DHT22;19986;48.190;16.366;2022-07-23T08:48:08;34.00;72.10
33645;DHT22;19986;48.190;16.366;2022-07-23T08:50:35;34.10;72.10
33645;DHT22;19986;48.190;16.366;2022-07-23T08:53:07;34.10;72.20
33645;DHT22;19986;48.190;16.366;2022-07-23T08:55:33;34.30;72.40
33645;DHT22;19986;48.190;16.366;2022-07-23T08:57:59;34.40;71.60
33645;DHT22;19986;48.190;16.366;2022-07-23T09:00:27;34.50;71.50
33645;DHT22;19986;48.190;16.366;2022-07-23T09:02:53;34.70;70.90
33645;DHT22;19986;48.190;16.366;2022-07-23T09:05:19;34.80;70.50
33645;DHT22;19986;48.190;16.366;2022-07-23T09:08:05;34.90;70.30
33645;DHT22;19986;48.190;16.366;2022-07-23T09:15:56;38.10;65.40
33645;DHT22;19986;48.190;16.366;2022-07-23T09:21:26;41.20;60.80
33645;DHT22;19986;48.190;16.366;2022-07-23T09:29:12;43.70;56.90
33645;DHT22;19986;48.190;16.366;2022-07-23T09:31:45;44.10;56.20
33645;DHT22;19986;48.190;16.366;2022-07-23T09:36:47;44.80;55.30
33645;DHT22;19986;48.190;16.366;2022-07-23T09:39:14;45.10;54.70
33645;DHT22;19986;48.190;16.366;2022-07-23T09:41:46;45.20;54.80
33645;DHT22;19986;48.190;16.366;2022-07-23T09:44:21;45.40;54.20
33645;DHT22;19986;48.190;16.366;2022-07-23T09:46:49;44.60;54.70
33645;DHT22;19986;48.190;16.366;2022-07-23T09:49:18;43.90;55.20
33645;DHT22;19986;48.190;16.366;2022-07-23T09:51:47;43.70;55.80
33645;DHT22;19986;48.190;16.366;2022-07-23T09:54:25;43.20;55.70
33645;DHT22;19986;48.190;16.366;2022-07-23T09:56:53;43.20;55.40
33645;DHT22;19986;48.190;16.366;2022-07-23T09:59:24;43.20;55.00
33645;DHT22;19986;48.190;16.366;2022-07-23T10:01:53;42.70;55.60
33645;DHT22;19986;48.190;16.366;2022-07-23T10:04:21;42.70;56.00
33645;DHT22;19986;48.190;16.366;2022-07-23T10:06:52;43.10;55.80
33645;DHT22;19986;48.190;16.366;2022-07-23T10:09:29;43.10;55.50
33645;DHT22;19986;48.190;16.366;2022-07-23T10:11:59;43.30;55.90
33645;DHT22;19986;48.190;16.366;2022-07-23T10:14:48;43.50;56.10
33645;DHT22;19986;48.190;16.366;2022-07-23T10:17:15;43.80;56.30
33645;DHT22;19986;48.190;16.366;2022-07-23T10:19:41;43.90;55.40
33645;DHT22;19986;48.190;16.366;2022-07-23T10:22:13;44.30;55.20
33645;DHT22;19986;48.190;16.366;2022-07-23T10:27:47;44.10;55.30
33645;DHT22;19986;48.190;16.366;2022-07-23T10:33:17;43.90;54.70
33645;DHT22;19986;48.190;16.366;2022-07-23T10:36:02;43.70;54.60
33645;DHT22;19986;48.190;16.366;2022-07-23T10:38:52;42.70;55.70
33645;DHT22;19986;48.190;16.366;2022-07-23T10:44:06;42.10;56.30
33645;DHT22;19986;48.190;16.366;2022-07-23T10:46:33;41.80;57.20
33645;DHT22;19986;48.190;16.366;2022-07-23T10:49:33;41.70;57.30
33645;DHT22;19986;48.190;16.366;2022-07-23T10:54:48;41.00;58.50
33645;DHT22;19986;48.190;16.366;2022-07-23T10:57:24;41.70;57.50
33645;DHT22;19986;48.190;16.366;2022-07-23T11:02:36;41.00;58.10
33645;DHT22;19986;48.190;16.366;2022-07-23T11:05:25;41.20;58.30
33645;DHT22;19986;48.190;16.366;2022-07-23T11:24:10;39.90;61.10
33645;DHT22;19986;48.190;16.366;2022-07-23T11:26:46;39.60;61.00
33645;DHT22;19986;48.190;16.366;2022-07-23T11:32:19;40.20;60.80
33645;DHT22;19986;48.190;16.366;2022-07-23T11:34:47;40.60;60.10
33645;DHT22;19986;48.190;16.366;2022-07-23T11:37:37;40.50;60.20
33645;DHT22;19986;48.190;16.366;2022-07-23T11:40:11;40.60;59.90
33645;DHT22;19986;48.190;16.366;2022-07-23T11:42:39;40.80;59.70
33645;DHT22;19986;48.190;16.366;2022-07-23T11:45:07;41.10;59.30
33645;DHT22;19986;48.190;16.366;2022-07-23T11:47:33;41.30;59.20
33645;DHT22;19986;48.190;16.366;2022-07-23T11:50:01;41.60;59.00
33645;DHT22;19986;48.190;16.366;2022-07-23T11:52:28;41.70;58.80
33645;DHT22;19986;48.190;16.366;2022-07-23T11:54:56;42.00;58.70
33645;DHT22;19986;48.190;16.366;2022-07-23T11:57:28;42.00;58.60
33645;DHT22;19986;48.190;16.366;2022-07-23T12:00:03;41.50;58.90
33645;DHT22;19986;48.190;16.366;2022-07-23T12:02:30;41.30;59.30
33645;DHT22;19986;48.190;16.366;2022-07-23T12:04:56;41.00;59.80
33645;DHT22;19986;48.190;16.366;2022-07-23T12:07:35;40.70;60.20
33645;DHT22;19986;48.190;16.366;2022-07-23T12:10:15;40.00;61.30
33645;DHT22;19986;48.190;16.366;2022-07-23T12:12:50;39.40;62.10
33645;DHT22;19986;48.190;16.366;2022-07-23T12:15:19;38.80;62.90
33645;DHT22;19986;48.190;16.366;2022-07-23T12:17:46;38.30;63.80
33645;DHT22;19986;48.190;16.366;2022-07-23T12:20:17;38.10;64.00
33645;DHT22;19986;48.190;16.366;2022-07-23T12:22:52;38.00;64.30
33645;DHT22;19986;48.190;16.366;2022-07-23T12:25:21;38.00;64.20
33645;DHT22;19986;48.190;16.366;2022-07-23T12:27:59;37.90;64.50
33645;DHT22;19986;48.190;16.366;2022-07-23T12:30:29;37.70;64.60
33645;DHT22;19986;48.190;16.366;2022-07-23T12:32:57;37.40;65.70
33645;DHT22;19986;48.190;16.366;2022-07-23T12:35:29;37.30;65.00
33645;DHT22;19986;48.190;16.366;2022-07-23T12:38:01;37.10;65.00
33645;DHT22;19986;48.190;16.366;2022-07-23T12:40:32;37.10;65.10
33645;DHT22;19986;48.190;16.366;2022-07-23T12:43:02;36.80;65.10
33645;DHT22;19986;48.190;16.366;2022-07-23T12:45:46;36.50;65.70
33645;DHT22;19986;48.190;16.366;2022-07-23T12:48:29;36.20;66.40
33645;DHT22;19986;48.190;16.366;2022-07-23T12:51:00;36.00;66.70
33645;DHT22;19986;48.190;16.366;2022-07-23T12:53:38;35.70;67.00
33645;DHT22;19986;48.190;16.366;2022-07-23T12:56:12;35.50;67.30
33645;DHT22;19986;48.190;16.366;2022-07-23T12:58:48;35.40;67.20
33645;DHT22;19986;48.190;16.366;2022-07-23T13:06:48;34.90;66.70
33645;DHT22;19986;48.190;16.366;2022-07-23T13:09:17;34.90;66.60
33645;DHT22;19986;48.190;16.366;2022-07-23T13:11:45;34.80;66.00
33645;DHT22;19986;48.190;16.366;2022-07-23T13:14:12;34.80;65.50
33645;DHT22;19986;48.190;16.366;2022-07-23T13:16:39;34.80;65.00
33645;DHT22;19986;48.190;16.366;2022-07-23T13:19:05;35.10;64.60
33645;DHT22;19986;48.190;16.366;2022-07-23T13:21:33;35.50;63.80
33645;DHT22;19986;48.190;16.366;2022-07-23T13:23:59;35.80;62.80
33645;DHT22;19986;48.190;16.366;2022-07-23T13:26:26;35.90;62.00
33645;DHT22;19986;48.190;16.366;2022-07-23T13:28:52;35.90;61.80
33645;DHT22;19986;48.190;16.366;2022-07-23T13:31:18;36.10;61.70
33645;DHT22;19986;48.190;16.366;2022-07-23T13:33:44;36.30;61.40
33645;DHT22;19986;48.190;16.366;2022-07-23T13:36:10;36.30;60.80
33645;DHT22;19986;48.190;16.366;2022-07-23T13:38:37;36.20;61.20
33645;DHT22;19986;48.190;16.366;2022-07-23T13:41:04;36.10;61.20
33645;DHT22;19986;48.190;16.366;2022-07-23T13:43:31;35.90;61.30
33645;DHT22;19986;48.190;16.366;2022-07-23T13:45:57;35.90;61.50
33645;DHT22;19986;48.190;16.366;2022-07-23T13:48:24;35.90;61.70
33645;DHT22;19986;48.190;16.366;2022-07-23T13:50:50;35.70;61.40
33645;DHT22;19986;48.190;16.366;2022-07-23T13:53:19;35.70;61.90
33645;DHT22;19986;48.190;16.366;2022-07-23T13:55:46;35.70;61.70
33645;DHT22;19986;48.190;16.366;2022-07-23T13:58:12;35.60;61.80
33645;DHT22;19986;48.190;16.366;2022-07-23T14:00:41;35.60;61.80
33645;DHT22;19986;48.190;16.366;2022-07-23T14:03:08;35.60;62.00
33645;DHT22;19986;48.190;16.366;2022-07-23T14:05:34;35.60;62.10
33645;DHT22;19986;48.190;16.366;2022-07-23T14:08:00;35.60;62.20
33645;DHT22;19986;48.190;16.366;2022-07-23T14:10:26;35.50;62.20
33645;DHT22;19986;48.190;16.366;2022-07-23T14:12:53;35.50;62.20
33645;DHT22;19986;48.190;16.366;2022-07-23T14:15:22;35.50;62.20
33645;DHT22;19986;48.190;16.366;2022-07-23T14:17:48;35.50;62.60
33645;DHT22;19986;48.190;16.366;2022-07-23T14:20:14;35.70;61.80
33645;DHT22;19986;48.190;16.366;2022-07-23T14:22:40;35.80;61.60
33645;DHT22;19986;48.190;16.366;2022-07-23T14:25:08;35.80;61.70
33645;DHT22;19986;48.190;16.366;2022-07-23T14:27:35;35.70;60.50
33645;DHT22;19986;48.190;16.366;2022-07-23T14:30:04;35.60;60.20
33645;DHT22;19986;48.190;16.366;2022-07-23T14:32:31;35.40;60.00
33645;DHT22;19986;48.190;16.366;2022-07-23T14:34:56;35.30;59.50
33645;DHT22;19986;48.190;16.366;2022-07-23T14:37:23;35.20;59.40
33645;DHT22;19986;48.190;16.366;2022-07-23T14:39:50;35.20;59.10
33645;DHT22;19986;48.190;16.366;2022-07-23T14:42:17;35.30;59.30
33645;DHT22;19986;48.190;16.366;2022-07-23T14:44:43;35.40;59.20
33645;DHT22;19986;48.190;16.366;2022-07-23T14:47:09;35.50;59.40
33645;DHT22;19986;48.190;16.366;2022-07-23T14:49:35;35.60;59.20
33645;DHT22;19986;48.190;16.366;2022-07-23T14:52:02;35.70;59.20
33645;DHT22;19986;48.190;16.366;2022-07-23T14:54:30;35.80;59.30
33645;DHT22;19986;48.190;16.366;2022-07-23T14:56:57;35.90;59.10
33645;DHT22;19986;48.190;16.366;2022-07-23T14:59:24;36.10;59.00
33645;DHT22;19986;48.190;16.366;2022-07-23T15:01:50;36.10;59.20
33645;DHT22;19986;48.190;16.366;2022-07-23T15:04:16;36.20;59.70
33645;DHT22;19986;48.190;16.366;2022-07-23T15:06:42;36.20;59.80
33645;DHT22;19986;48.190;16.366;2022-07-23T15:09:08;36.10;60.60
33645;DHT22;19986;48.190;16.366;2022-07-23T15:11:34;35.90;60.80
33645;DHT22;19986;48.190;16.366;2022-07-23T15:14:05;35.90;61.50
33645;DHT22;19986;48.190;16.366;2022-07-23T15:16:32;35.90;61.90
33645;DHT22;19986;48.190;16.366;2022-07-23T15:18:58;35.90;62.50
33645;DHT22;19986;48.190;16.366;2022-07-23T15:21:24;35.90;62.60
33645;DHT22;19986;48.190;16.366;2022-07-23T15:23:50;36.00;63.40
33645;DHT22;19986;48.190;16.366;2022-07-23T15:26:17;35.90;63.10
33645;DHT22;19986;48.190;16.366;2022-07-23T15:28:43;35.80;63.40
33645;DHT22;19986;48.190;16.366;2022-07-23T15:31:10;35.70;63.60
33645;DHT22;19986;48.190;16.366;2022-07-23T15:33:37;35.80;63.70
33645;DHT22;19986;48.190;16.366;2022-07-23T15:36:08;35.80;63.70
33645;DHT22;19986;48.190;16.366;2022-07-23T15:38:35;35.70;63.40
33645;DHT22;19986;48.190;16.366;2022-07-23T15:41:01;35.70;63.00
33645;DHT22;19986;48.190;16.366;2022-07-23T15:43:28;35.60;63.10
33645;DHT22;19986;48.190;16.366;2022-07-23T15:45:54;35.50;63.60
33645;DHT22;19986;48.190;16.366;2022-07-23T15:48:21;35.50;63.70
33645;DHT22;19986;48.190;16.366;2022-07-23T15:50:50;35.50;64.20
33645;DHT22;19986;48.190;16.366;2022-07-23T15:53:17;35.50;63.90
33645;DHT22;19986;48.190;16.366;2022-07-23T15:55:44;35.50;63.70
33645;DHT22;19986;48.190;16.366;2022-07-23T15:58:11;35.40;63.90
33645;DHT22;19986;48.190;16.366;2022-07-23T16:00:37;35.30;64.20
33645;DHT22;19986;48.190;16.366;2022-07-23T16:03:03;35.30;64.40
33645;DHT22;19986;48.190;16.366;2022-07-23T16:05:29;35.30;64.20
33645;DHT22;19986;48.190;16.366;2022-07-23T16:07:55;35.30;64.40
33645;DHT22;19986;48.190;16.366;2022-07-23T16:10:21;35.30;64.80
33645;DHT22;19986;48.190;16.366;2022-07-23T16:12:47;35.30;64.90
33645;DHT22;19986;48.190;16.366;2022-07-23T16:15:15;35.20;65.00